Ponte Alta do Norte, Brazil
Current Conditions -  °F | °C
As of 12:00 AM on Wednesday 22 Oct 2014 (Local Time) from SBNF Reporting Station
Broken Clouds Broken Clouds  
Wind Chill: 70°   Ceiling: 4000
Heat Index: 70°   Visibility: 6mi
Dew Point: 54°   Wind: 8mph
Humidity: 56%   Direction: 70°ENE
Pressure: 30.21"   Gusts: NA
Location:  27.16°S, 50.46°W
Report Text: SBNF 220200Z 07007KT 9999 BKN040 21/12 Q1023
Loading
Personal Weather Stations






























Interactive Weather Map
Tropical Storm Tracking
New forecast layout! Learn more

10-Day Weather Forecast

Advertisements
Track Severe Weather on mobile